sensor_id;sensor_type;location;lat;lon;timestamp;pressure;altitude;pressure_sealevel;temperature;humidity
26861;BME280;37676;46.956;7.430;2022-09-09T00:00:15;95133.44;;;22.16;46.52
26861;BME280;37676;46.956;7.430;2022-09-09T00:02:49;95021.94;;;21.34;46.57
26861;BME280;37676;46.956;7.430;2022-09-09T00:07:55;95119.31;;;22.09;46.77
26861;BME280;37676;46.956;7.430;2022-09-09T00:10:26;95125.56;;;22.07;46.63
26861;BME280;37676;46.956;7.430;2022-09-09T00:19:01;95124.81;;;21.99;46.84
26861;BME280;37676;46.956;7.430;2022-09-09T00:21:42;95109.34;;;22.00;47.01
26861;BME280;37676;46.956;7.430;2022-09-09T00:24:19;95108.59;;;22.00;47.01
26861;BME280;37676;46.956;7.430;2022-09-09T00:26:49;95108.22;;;21.96;47.07
26861;BME280;37676;46.956;7.430;2022-09-09T00:29:30;95116.13;;;21.97;47.09
26861;BME280;37676;46.956;7.430;2022-09-09T00:32:07;95137.31;;;21.96;47.53
26861;BME280;37676;46.956;7.430;2022-09-09T00:34:35;95117.28;;;21.94;47.20
26861;BME280;37676;46.956;7.430;2022-09-09T00:37:02;95076.22;;;21.63;47.32
26861;BME280;37676;46.956;7.430;2022-09-09T00:39:36;95128.63;;;21.94;47.45
26861;BME280;37676;46.956;7.430;2022-09-09T00:42:23;95128.25;;;21.90;47.49
26861;BME280;37676;46.956;7.430;2022-09-09T00:45:00;95129.41;;;21.87;47.39
26861;BME280;37676;46.956;7.430;2022-09-09T00:47:43;95129.22;;;21.85;47.50
26861;BME280;37676;46.956;7.430;2022-09-09T00:50:29;95132.81;;;21.86;47.48
26861;BME280;37676;46.956;7.430;2022-09-09T00:58:26;95143.56;;;21.87;47.85
26861;BME280;37676;46.956;7.430;2022-09-09T01:01:00;95128.28;;;21.67;47.94
26861;BME280;37676;46.956;7.430;2022-09-09T01:03:38;95149.25;;;21.87;47.95
26861;BME280;37676;46.956;7.430;2022-09-09T01:06:15;95142.25;;;21.81;47.82
26861;BME280;37676;46.956;7.430;2022-09-09T01:09:05;95152.44;;;21.91;48.22
26861;BME280;37676;46.956;7.430;2022-09-09T01:11:50;95146.59;;;21.89;48.19
26861;BME280;37676;46.956;7.430;2022-09-09T01:17:14;95133.56;;;21.86;48.37
26861;BME280;37676;46.956;7.430;2022-09-09T01:25:27;95153.94;;;21.77;48.58
26861;BME280;37676;46.956;7.430;2022-09-09T01:27:56;95166.81;;;21.78;48.84
26861;BME280;37676;46.956;7.430;2022-09-09T01:30:25;95146.81;;;21.61;48.87
26861;BME280;37676;46.956;7.430;2022-09-09T01:32:54;95177.94;;;21.76;49.12
26861;BME280;37676;46.956;7.430;2022-09-09T01:35:28;95180.41;;;21.72;49.14
26861;BME280;37676;46.956;7.430;2022-09-09T01:37:56;95030.31;;;20.64;49.74
26861;BME280;37676;46.956;7.430;2022-09-09T01:40:22;95192.13;;;21.61;49.82
26861;BME280;37676;46.956;7.430;2022-09-09T01:42:47;95197.59;;;21.59;50.12
26861;BME280;37676;46.956;7.430;2022-09-09T01:45:13;95188.53;;;21.60;50.90
26861;BME280;37676;46.956;7.430;2022-09-09T01:47:38;95188.72;;;21.55;51.54
26861;BME280;37676;46.956;7.430;2022-09-09T01:50:04;95180.44;;;21.49;51.80
26861;BME280;37676;46.956;7.430;2022-09-09T01:52:30;95168.38;;;21.41;51.80
26861;BME280;37676;46.956;7.430;2022-09-09T01:54:59;95168.72;;;21.38;51.97
26861;BME280;37676;46.956;7.430;2022-09-09T01:57:39;95164.22;;;21.35;52.39
26861;BME280;37676;46.956;7.430;2022-09-09T02:00:10;95123.50;;;21.08;52.37
26861;BME280;37676;46.956;7.430;2022-09-09T02:07:59;95170.63;;;21.28;53.21
26861;BME280;37676;46.956;7.430;2022-09-09T02:10:34;95166.28;;;21.27;53.63
26861;BME280;37676;46.956;7.430;2022-09-09T02:13:06;94894.63;;;19.44;53.66
26861;BME280;37676;46.956;7.430;2022-09-09T02:15:42;95164.22;;;21.27;54.18
26861;BME280;37676;46.956;7.430;2022-09-09T02:18:12;95122.88;;;20.87;54.09
26861;BME280;37676;46.956;7.430;2022-09-09T02:20:39;95151.59;;;21.21;53.97
26861;BME280;37676;46.956;7.430;2022-09-09T02:23:07;95160.81;;;21.21;53.64
26861;BME280;37676;46.956;7.430;2022-09-09T02:25:35;95151.78;;;21.23;54.11
26861;BME280;37676;46.956;7.430;2022-09-09T02:28:04;95132.56;;;21.14;54.00
26861;BME280;37676;46.956;7.430;2022-09-09T02:30:32;95109.13;;;20.91;53.92
26861;BME280;37676;46.956;7.430;2022-09-09T02:33:01;95136.69;;;21.20;53.80
26861;BME280;37676;46.956;7.430;2022-09-09T02:35:29;95138.56;;;21.18;53.71
26861;BME280;37676;46.956;7.430;2022-09-09T02:37:59;95069.16;;;20.71;53.60
26861;BME280;37676;46.956;7.430;2022-09-09T02:40:26;95134.44;;;21.19;53.47
26861;BME280;37676;46.956;7.430;2022-09-09T02:42:54;94960.59;;;19.99;53.39
26861;BME280;37676;46.956;7.430;2022-09-09T02:45:24;95140.47;;;21.23;53.76
26861;BME280;37676;46.956;7.430;2022-09-09T02:48:05;95142.72;;;21.24;53.72
26861;BME280;37676;46.956;7.430;2022-09-09T02:50:40;94974.53;;;20.12;53.80
26861;BME280;37676;46.956;7.430;2022-09-09T02:55:46;95145.94;;;21.21;53.74
26861;BME280;37676;46.956;7.430;2022-09-09T02:58:16;95138.19;;;21.21;53.73
26861;BME280;37676;46.956;7.430;2022-09-09T03:00:43;95139.69;;;21.22;53.69
26861;BME280;37676;46.956;7.430;2022-09-09T03:03:09;95141.38;;;21.25;53.84
26861;BME280;37676;46.956;7.430;2022-09-09T03:05:35;95144.97;;;21.26;53.98
26861;BME280;37676;46.956;7.430;2022-09-09T03:11:16;95143.09;;;21.21;54.10
26861;BME280;37676;46.956;7.430;2022-09-09T03:13:42;95119.13;;;21.07;54.10
26861;BME280;37676;46.956;7.430;2022-09-09T03:16:07;95143.84;;;21.21;54.09
26861;BME280;37676;46.956;7.430;2022-09-09T03:18:32;95138.94;;;21.22;53.92
26861;BME280;37676;46.956;7.430;2022-09-09T03:20:59;95148.56;;;21.19;53.92
26861;BME280;37676;46.956;7.430;2022-09-09T03:23:24;95049.00;;;20.67;53.92
26861;BME280;37676;46.956;7.430;2022-09-09T03:25:50;95108.97;;;21.04;54.25
26861;BME280;37676;46.956;7.430;2022-09-09T03:28:16;95134.22;;;21.17;54.09
26861;BME280;37676;46.956;7.430;2022-09-09T03:30:42;94982.63;;;20.16;54.02
26861;BME280;37676;46.956;7.430;2022-09-09T03:33:07;95144.59;;;21.22;54.10
26861;BME280;37676;46.956;7.430;2022-09-09T03:35:32;95151.59;;;21.21;54.19
26861;BME280;37676;46.956;7.430;2022-09-09T03:37:58;95119.13;;;21.07;54.18
26861;BME280;37676;46.956;7.430;2022-09-09T03:40:23;95137.44;;;21.21;54.22
26861;BME280;37676;46.956;7.430;2022-09-09T03:42:48;95103.13;;;21.02;54.39
26861;BME280;37676;46.956;7.430;2022-09-09T03:45:14;95138.94;;;21.22;54.44
26861;BME280;37676;46.956;7.430;2022-09-09T03:47:40;95134.63;;;21.21;54.43
26861;BME280;37676;46.956;7.430;2022-09-09T03:50:07;95136.69;;;21.20;54.34
26861;BME280;37676;46.956;7.430;2022-09-09T03:52:35;95042.97;;;20.56;54.59
26861;BME280;37676;46.956;7.430;2022-09-09T03:55:01;95110.66;;;21.07;54.59
26861;BME280;37676;46.956;7.430;2022-09-09T03:57:26;95132.91;;;21.18;54.42
26861;BME280;37676;46.956;7.430;2022-09-09T03:59:51;95137.06;;;21.17;54.48
26861;BME280;37676;46.956;7.430;2022-09-09T04:02:17;95126.50;;;21.17;54.44
26861;BME280;37676;46.956;7.430;2022-09-09T04:04:42;95132.91;;;21.18;54.38
26861;BME280;37676;46.956;7.430;2022-09-09T04:07:07;94946.63;;;19.86;54.46
26861;BME280;37676;46.956;7.430;2022-09-09T04:09:33;95122.34;;;21.18;54.37
26861;BME280;37676;46.956;7.430;2022-09-09T04:11:59;95128.00;;;21.18;54.43
26861;BME280;37676;46.956;7.430;2022-09-09T04:14:25;95128.78;;;21.19;54.57
26861;BME280;37676;46.956;7.430;2022-09-09T04:16:53;95125.75;;;21.17;54.39
26861;BME280;37676;46.956;7.430;2022-09-09T04:19:19;95128.38;;;21.15;54.91
26861;BME280;37676;46.956;7.430;2022-09-09T04:21:44;95113.13;;;21.03;54.57
26861;BME280;37676;46.956;7.430;2022-09-09T04:24:09;95102.31;;;20.94;54.77
26861;BME280;37676;46.956;7.430;2022-09-09T04:26:36;95120.47;;;21.06;54.95
26861;BME280;37676;46.956;7.430;2022-09-09T04:29:03;95127.25;;;21.10;54.87
26861;BME280;37676;46.956;7.430;2022-09-09T04:31:28;95135.19;;;21.12;54.92
26861;BME280;37676;46.956;7.430;2022-09-09T04:33:54;95134.44;;;21.11;55.05
26861;BME280;37676;46.956;7.430;2022-09-09T04:36:19;95143.50;;;21.10;55.26
26861;BME280;37676;46.956;7.430;2022-09-09T04:38:45;95133.25;;;20.99;55.17
26861;BME280;37676;46.956;7.430;2022-09-09T04:41:12;95140.84;;;21.04;54.95
26861;BME280;37676;46.956;7.430;2022-09-09T04:43:38;95087.81;;;20.59;54.99
26861;BME280;37676;46.956;7.430;2022-09-09T04:46:04;95139.13;;;21.01;55.08
26861;BME280;37676;46.956;7.430;2022-09-09T04:48:30;95149.13;;;21.02;54.93
26861;BME280;37676;46.956;7.430;2022-09-09T04:51:02;95138.59;;;21.03;55.11
26861;BME280;37676;46.956;7.430;2022-09-09T04:53:27;95137.81;;;21.02;55.13
26861;BME280;37676;46.956;7.430;2022-09-09T04:56:01;95140.09;;;21.04;55.10
26861;BME280;37676;46.956;7.430;2022-09-09T04:58:27;95152.16;;;21.04;55.24
26861;BME280;37676;46.956;7.430;2022-09-09T05:00:52;95141.59;;;21.05;55.35
26861;BME280;37676;46.956;7.430;2022-09-09T05:03:18;95146.13;;;21.08;55.43
26861;BME280;37676;46.956;7.430;2022-09-09T05:05:44;95058.97;;;20.53;55.39
26861;BME280;37676;46.956;7.430;2022-09-09T05:08:10;95075.94;;;20.68;55.49
26861;BME280;37676;46.956;7.430;2022-09-09T05:10:37;95134.81;;;21.08;55.75
26861;BME280;37676;46.956;7.430;2022-09-09T05:13:03;95139.50;;;21.05;55.82
26861;BME280;37676;46.956;7.430;2022-09-09T05:15:31;94969.25;;;19.94;55.87
26861;BME280;37676;46.956;7.430;2022-09-09T05:18:00;95075.75;;;20.66;55.88
26861;BME280;37676;46.956;7.430;2022-09-09T05:20:26;95145.75;;;21.04;55.96
26861;BME280;37676;46.956;7.430;2022-09-09T05:22:53;95067.66;;;20.63;55.99
26861;BME280;37676;46.956;7.430;2022-09-09T05:25:19;95128.78;;;21.04;56.12
26861;BME280;37676;46.956;7.430;2022-09-09T05:27:44;94957.75;;;19.92;56.16
26861;BME280;37676;46.956;7.430;2022-09-09T05:30:10;95055.56;;;20.47;56.30
26861;BME280;37676;46.956;7.430;2022-09-09T05:32:35;95056.34;;;20.55;55.70
26861;BME280;37676;46.956;7.430;2022-09-09T05:35:01;95070.28;;;20.68;56.04
26861;BME280;37676;46.956;7.430;2022-09-09T05:37:26;95138.94;;;21.07;56.04
26861;BME280;37676;46.956;7.430;2022-09-09T05:39:52;95092.16;;;20.76;56.06
26861;BME280;37676;46.956;7.430;2022-09-09T05:42:18;95134.81;;;21.08;56.30
26861;BME280;37676;46.956;7.430;2022-09-09T05:44:43;95143.28;;;21.08;56.62
26861;BME280;37676;46.956;7.430;2022-09-09T05:47:10;95127.81;;;21.09;56.41
26861;BME280;37676;46.956;7.430;2022-09-09T05:49:35;95141.97;;;21.09;56.41
26861;BME280;37676;46.956;7.430;2022-09-09T05:52:01;95134.44;;;21.04;56.68
26861;BME280;37676;46.956;7.430;2022-09-09T05:54:29;95139.88;;;21.02;56.66
26861;BME280;37676;46.956;7.430;2022-09-09T05:56:54;95085.19;;;20.61;56.64
26861;BME280;37676;46.956;7.430;2022-09-09T05:59:19;95005.03;;;20.06;56.77
26861;BME280;37676;46.956;7.430;2022-09-09T06:01:45;95050.66;;;20.33;56.72
26861;BME280;37676;46.956;7.430;2022-09-09T06:04:11;95114.59;;;20.73;56.96
26861;BME280;37676;46.956;7.430;2022-09-09T06:06:37;95147.97;;;20.98;56.87
26861;BME280;37676;46.956;7.430;2022-09-09T06:09:06;94948.66;;;19.63;56.80
26861;BME280;37676;46.956;7.430;2022-09-09T06:11:35;95164.94;;;20.98;57.13
26861;BME280;37676;46.956;7.430;2022-09-09T06:14:01;95130.97;;;20.83;56.96
26861;BME280;37676;46.956;7.430;2022-09-09T06:16:27;95151.00;;;21.00;56.81
26861;BME280;37676;46.956;7.430;2022-09-09T06:18:54;95045.38;;;20.29;56.95
26861;BME280;37676;46.956;7.430;2022-09-09T06:21:23;95148.94;;;21.00;56.96
26861;BME280;37676;46.956;7.430;2022-09-09T06:23:48;95152.53;;;21.01;57.21
26861;BME280;37676;46.956;7.430;2022-09-09T06:26:19;95124.97;;;20.79;57.04
26861;BME280;37676;46.956;7.430;2022-09-09T06:28:49;95153.66;;;21.05;56.73
26861;BME280;37676;46.956;7.430;2022-09-09T06:31:17;95125.72;;;20.94;57.13
26861;BME280;37676;46.956;7.430;2022-09-09T06:33:46;95168.38;;;21.11;57.04
26861;BME280;37676;46.956;7.430;2022-09-09T06:36:14;95122.88;;;20.94;57.05
26861;BME280;37676;46.956;7.430;2022-09-09T06:38:43;95081.97;;;20.73;57.06
26861;BME280;37676;46.956;7.430;2022-09-09T06:41:10;95152.72;;;21.18;57.08
26861;BME280;37676;46.956;7.430;2022-09-09T06:43:36;95147.03;;;21.18;57.01
26861;BME280;37676;46.956;7.430;2022-09-09T06:46:04;95155.16;;;21.21;56.97
26861;BME280;37676;46.956;7.430;2022-09-09T06:48:29;95146.50;;;21.19;56.99
26861;BME280;37676;46.956;7.430;2022-09-09T06:53:26;95142.53;;;21.15;56.85
26861;BME280;37676;46.956;7.430;2022-09-09T06:55:52;95114.03;;;20.98;57.04
26861;BME280;37676;46.956;7.430;2022-09-09T06:58:18;94981.66;;;19.98;57.15
26861;BME280;37676;46.956;7.430;2022-09-09T07:00:43;95149.69;;;21.31;57.24
26861;BME280;37676;46.956;7.430;2022-09-09T07:03:10;95128.97;;;21.21;57.28
26861;BME280;37676;46.956;7.430;2022-09-09T07:05:35;95148.91;;;21.38;57.36
26861;BME280;37676;46.956;7.430;2022-09-09T07:08:00;95146.28;;;21.40;57.27
26861;BME280;37676;46.956;7.430;2022-09-09T07:10:26;95124.97;;;21.24;57.11
26861;BME280;37676;46.956;7.430;2022-09-09T07:12:52;95153.66;;;21.43;57.25
26861;BME280;37676;46.956;7.430;2022-09-09T07:15:18;95142.53;;;21.30;57.16
26861;BME280;37676;46.956;7.430;2022-09-09T07:17:44;94993.41;;;20.40;56.96
26861;BME280;37676;46.956;7.430;2022-09-09T07:20:10;95151.91;;;21.55;56.78
26861;BME280;37676;46.956;7.430;2022-09-09T07:22:35;95150.41;;;21.54;56.82
26861;BME280;37676;46.956;7.430;2022-09-09T07:25:00;95154.75;;;21.55;56.85
26861;BME280;37676;46.956;7.430;2022-09-09T07:27:27;95157.78;;;21.57;57.10
26861;BME280;37676;46.956;7.430;2022-09-09T07:29:52;95148.31;;;21.62;56.93
26861;BME280;37676;46.956;7.430;2022-09-09T07:32:19;95150.97;;;21.60;56.77
26861;BME280;37676;46.956;7.430;2022-09-09T07:34:45;94794.69;;;19.17;56.67
26861;BME280;37676;46.956;7.430;2022-09-09T07:37:11;95147.56;;;21.69;56.83
26861;BME280;37676;46.956;7.430;2022-09-09T07:39:39;95155.50;;;21.71;56.98
26861;BME280;37676;46.956;7.430;2022-09-09T07:42:04;95159.59;;;21.77;56.81
26861;BME280;37676;46.956;7.430;2022-09-09T07:44:30;95150.03;;;21.80;56.79
26861;BME280;37676;46.956;7.430;2022-09-09T07:46:57;95164.34;;;21.82;56.88
26861;BME280;37676;46.956;7.430;2022-09-09T07:49:23;95000.19;;;20.59;56.74
26861;BME280;37676;46.956;7.430;2022-09-09T07:51:49;95141.13;;;21.68;56.65
26861;BME280;37676;46.956;7.430;2022-09-09T07:54:17;95174.38;;;21.83;56.76
26861;BME280;37676;46.956;7.430;2022-09-09T07:56:45;95171.72;;;21.85;56.56
26861;BME280;37676;46.956;7.430;2022-09-09T07:59:12;95114.03;;;21.43;56.56
26861;BME280;37676;46.956;7.430;2022-09-09T08:01:40;95008.66;;;20.75;56.26
26861;BME280;37676;46.956;7.430;2022-09-09T08:04:12;95175.13;;;21.84;55.94
26861;BME280;37676;46.956;7.430;2022-09-09T08:06:53;95182.28;;;21.77;56.00
26861;BME280;37676;46.956;7.430;2022-09-09T08:09:19;95009.44;;;20.60;56.09
26861;BME280;37676;46.956;7.430;2022-09-09T08:11:45;95180.78;;;21.76;56.27
26861;BME280;37676;46.956;7.430;2022-09-09T08:14:11;95020.72;;;20.52;56.07
26861;BME280;37676;46.956;7.430;2022-09-09T08:16:42;95169.88;;;21.50;56.15
26861;BME280;37676;46.956;7.430;2022-09-09T08:19:08;95185.31;;;21.49;56.35
26861;BME280;37676;46.956;7.430;2022-09-09T08:21:35;95202.88;;;21.62;56.46
26861;BME280;37676;46.956;7.430;2022-09-09T08:24:02;95189.88;;;21.52;56.19
26861;BME280;37676;46.956;7.430;2022-09-09T08:26:32;95211.38;;;21.62;55.86
26861;BME280;37676;46.956;7.430;2022-09-09T08:29:00;95187.63;;;21.43;55.24
26861;BME280;37676;46.956;7.430;2022-09-09T08:31:34;95208.34;;;21.53;54.36
26861;BME280;37676;46.956;7.430;2022-09-09T08:34:00;95202.69;;;21.38;54.61
26861;BME280;37676;46.956;7.430;2022-09-09T08:36:28;95216.28;;;21.54;54.49
26861;BME280;37676;46.956;7.430;2022-09-09T08:38:57;95011.84;;;20.18;54.42
26861;BME280;37676;46.956;7.430;2022-09-09T08:41:30;95214.41;;;21.57;54.76
26861;BME280;37676;46.956;7.430;2022-09-09T08:44:07;95210.25;;;21.58;54.82
26861;BME280;37676;46.956;7.430;2022-09-09T08:46:44;95204.75;;;21.60;54.96
26861;BME280;37676;46.956;7.430;2022-09-09T08:49:24;95154.63;;;21.23;55.16
26861;BME280;37676;46.956;7.430;2022-09-09T08:52:04;95209.88;;;21.69;55.06
26861;BME280;37676;46.956;7.430;2022-09-09T08:54:34;95200.63;;;21.61;55.03
26861;BME280;37676;46.956;7.430;2022-09-09T08:57:02;95217.41;;;21.74;55.11
26861;BME280;37676;46.956;7.430;2022-09-09T08:59:27;95179.31;;;21.45;55.11
26861;BME280;37676;46.956;7.430;2022-09-09T09:02:08;95222.31;;;21.81;54.82
26861;BME280;37676;46.956;7.430;2022-09-09T09:12:56;95219.44;;;22.04;54.22
26861;BME280;37676;46.956;7.430;2022-09-09T09:15:29;95227.53;;;22.22;53.47
26861;BME280;37676;46.956;7.430;2022-09-09T09:17:56;95216.53;;;22.26;53.04
26861;BME280;37676;46.956;7.430;2022-09-09T09:21:12;94877.38;;;19.93;52.98
26861;BME280;37676;46.956;7.430;2022-09-09T09:23:36;95059.91;;;21.24;52.92
26861;BME280;37676;46.956;7.430;2022-09-09T09:26:06;95226.34;;;22.33;52.83
26861;BME280;37676;46.956;7.430;2022-09-09T09:28:34;95222.91;;;22.42;52.50
26861;BME280;37676;46.956;7.430;2022-09-09T09:31:10;95220.25;;;22.44;52.06
26861;BME280;37676;46.956;7.430;2022-09-09T09:33:49;95225.31;;;22.53;51.80
26861;BME280;37676;46.956;7.430;2022-09-09T09:36:15;95200.81;;;22.40;51.51
26861;BME280;37676;46.956;7.430;2022-09-09T09:38:53;95140.50;;;22.00;51.84
26861;BME280;37676;46.956;7.430;2022-09-09T09:41:38;95224.69;;;22.70;51.09
26861;BME280;37676;46.956;7.430;2022-09-09T09:44:18;95233.75;;;22.76;51.15
26861;BME280;37676;46.956;7.430;2022-09-09T09:46:46;95218.00;;;22.82;51.13
26861;BME280;37676;46.956;7.430;2022-09-09T09:49:12;95193.69;;;22.72;50.88
26861;BME280;37676;46.956;7.430;2022-09-09T09:51:38;94929.47;;;20.90;51.08
26861;BME280;37676;46.956;7.430;2022-09-09T09:54:13;94864.72;;;20.46;51.06
26861;BME280;37676;46.956;7.430;2022-09-09T09:56:43;95204.13;;;22.94;50.47
26861;BME280;37676;46.956;7.430;2022-09-09T09:59:21;95195.34;;;23.07;50.36
26861;BME280;37676;46.956;7.430;2022-09-09T10:01:47;95204.03;;;23.09;49.80
26861;BME280;37676;46.956;7.430;2022-09-09T10:04:21;95197.38;;;23.14;50.69
26861;BME280;37676;46.956;7.430;2022-09-09T10:06:48;95194.31;;;23.19;50.67
26861;BME280;37676;46.956;7.430;2022-09-09T10:09:30;95203.19;;;23.23;50.93
26861;BME280;37676;46.956;7.430;2022-09-09T10:12:26;95202.41;;;23.23;50.44
26861;BME280;37676;46.956;7.430;2022-09-09T10:17:57;95044.69;;;22.06;49.67
26861;BME280;37676;46.956;7.430;2022-09-09T10:23:21;95204.84;;;23.02;48.91
26861;BME280;37676;46.956;7.430;2022-09-09T10:31:31;95201.94;;;22.85;49.07
26861;BME280;37676;46.956;7.430;2022-09-09T10:36:50;95195.91;;;22.81;49.40
26861;BME280;37676;46.956;7.430;2022-09-09T10:39:38;95190.41;;;22.83;49.30
26861;BME280;37676;46.956;7.430;2022-09-09T10:42:14;95182.59;;;22.91;49.20
26861;BME280;37676;46.956;7.430;2022-09-09T10:47:31;95183.25;;;23.06;48.81
26861;BME280;37676;46.956;7.430;2022-09-09T10:55:40;95173.75;;;23.36;48.96
26861;BME280;37676;46.956;7.430;2022-09-09T10:58:18;95172.09;;;23.33;47.31
26861;BME280;37676;46.956;7.430;2022-09-09T11:00:52;95163.75;;;23.35;47.44
26861;BME280;37676;46.956;7.430;2022-09-09T11:03:22;94844.28;;;21.25;47.73
26861;BME280;37676;46.956;7.430;2022-09-09T11:05:53;95174.13;;;23.40;47.59
26861;BME280;37676;46.956;7.430;2022-09-09T11:08:29;95167.09;;;23.41;47.26
26861;BME280;37676;46.956;7.430;2022-09-09T11:11:03;95157.59;;;23.46;47.33
26861;BME280;37676;46.956;7.430;2022-09-09T11:18:42;95130.66;;;23.30;46.47
26861;BME280;37676;46.956;7.430;2022-09-09T11:21:34;95156.41;;;23.49;46.86
26861;BME280;37676;46.956;7.430;2022-09-09T11:24:11;94961.16;;;22.15;46.10
26861;BME280;37676;46.956;7.430;2022-09-09T11:26:46;95036.25;;;22.63;46.17
26861;BME280;37676;46.956;7.430;2022-09-09T11:38:52;95160.09;;;23.42;46.21
26861;BME280;37676;46.956;7.430;2022-09-09T11:41:19;95154.59;;;23.44;45.30
26861;BME280;37676;46.956;7.430;2022-09-09T11:43:48;95161.00;;;23.44;45.44
26861;BME280;37676;46.956;7.430;2022-09-09T11:46:18;95152.25;;;23.50;45.73
26861;BME280;37676;46.956;7.430;2022-09-09T11:49:00;95153.69;;;23.58;46.13
26861;BME280;37676;46.956;7.430;2022-09-09T11:51:28;95159.72;;;23.63;45.45
26861;BME280;37676;46.956;7.430;2022-09-09T11:54:25;95155.94;;;23.60;44.66
26861;BME280;37676;46.956;7.430;2022-09-09T11:56:44;95105.44;;;23.34;44.77
26861;BME280;37676;46.956;7.430;2022-09-09T12:02:14;95151.69;;;23.69;43.94
26861;BME280;37676;46.956;7.430;2022-09-09T12:12:34;95146.94;;;23.88;43.00
26861;BME280;37676;46.956;7.430;2022-09-09T12:17:54;95146.03;;;24.03;42.53
26861;BME280;37676;46.956;7.430;2022-09-09T12:20:36;95134.72;;;23.95;41.32
26861;BME280;37676;46.956;7.430;2022-09-09T12:29:24;95141.13;;;24.03;39.05
26861;BME280;37676;46.956;7.430;2022-09-09T12:37:24;95154.56;;;24.03;38.67
26861;BME280;37676;46.956;7.430;2022-09-09T12:40:00;95159.31;;;24.00;38.42
26861;BME280;37676;46.956;7.430;2022-09-09T12:42:28;94982.13;;;22.86;38.69
26861;BME280;37676;46.956;7.430;2022-09-09T12:44:58;95153.97;;;24.04;38.40
26861;BME280;37676;46.956;7.430;2022-09-09T12:50:01;95146.59;;;24.18;39.25
26861;BME280;37676;46.956;7.430;2022-09-09T12:52:30;95161.00;;;24.20;38.30
26861;BME280;37676;46.956;7.430;2022-09-09T12:54:59;95148.63;;;24.25;38.72
26861;BME280;37676;46.956;7.430;2022-09-09T12:57:32;95094.94;;;23.95;38.30
26861;BME280;37676;46.956;7.430;2022-09-09T13:00:10;95143.31;;;24.39;38.96
26861;BME280;37676;46.956;7.430;2022-09-09T13:02:52;95147.25;;;24.43;39.32
26861;BME280;37676;46.956;7.430;2022-09-09T13:05:38;95129.75;;;24.47;39.13
26861;BME280;37676;46.956;7.430;2022-09-09T13:08:08;95128.31;;;24.55;39.82
26861;BME280;37676;46.956;7.430;2022-09-09T13:10:38;95100.94;;;24.33;39.04
26861;BME280;37676;46.956;7.430;2022-09-09T13:13:14;95082.03;;;24.28;40.26
26861;BME280;37676;46.956;7.430;2022-09-09T13:15:49;95122.09;;;24.67;40.44
26861;BME280;37676;46.956;7.430;2022-09-09T13:18:15;95118.78;;;24.61;40.48
26861;BME280;37676;46.956;7.430;2022-09-09T13:20:47;95066.81;;;24.33;40.33
26861;BME280;37676;46.956;7.430;2022-09-09T13:23:13;95078.41;;;24.45;40.64
26861;BME280;37676;46.956;7.430;2022-09-09T13:25:40;95132.94;;;24.78;39.64
26861;BME280;37676;46.956;7.430;2022-09-09T13:28:23;95147.59;;;24.74;39.32
26861;BME280;37676;46.956;7.430;2022-09-09T13:31:03;95137.41;;;24.71;38.77
26861;BME280;37676;46.956;7.430;2022-09-09T13:33:36;94970.50;;;23.50;38.52
26861;BME280;37676;46.956;7.430;2022-09-09T13:36:06;95137.75;;;24.58;38.47
26861;BME280;37676;46.956;7.430;2022-09-09T13:38:40;95143.13;;;24.54;38.73
26861;BME280;37676;46.956;7.430;2022-09-09T13:41:22;95146.06;;;24.46;39.39
26861;BME280;37676;46.956;7.430;2022-09-09T13:43:49;95145.47;;;24.48;39.00
26861;BME280;37676;46.956;7.430;2022-09-09T13:49:20;95154.09;;;24.40;38.48
26861;BME280;37676;46.956;7.430;2022-09-09T13:51:48;94882.19;;;22.60;38.95
26861;BME280;37676;46.956;7.430;2022-09-09T13:54:17;95135.47;;;24.30;39.27
26861;BME280;37676;46.956;7.430;2022-09-09T13:56:48;95142.59;;;24.38;39.49
26861;BME280;37676;46.956;7.430;2022-09-09T13:59:18;95148.09;;;24.36;39.33
26861;BME280;37676;46.956;7.430;2022-09-09T14:01:45;95137.56;;;24.29;38.98
26861;BME280;37676;46.956;7.430;2022-09-09T14:04:10;95052.50;;;23.63;39.05
26861;BME280;37676;46.956;7.430;2022-09-09T14:06:36;95139.34;;;24.25;38.94
26861;BME280;37676;46.956;7.430;2022-09-09T14:09:03;95124.19;;;24.22;39.61
26861;BME280;37676;46.956;7.430;2022-09-09T14:11:29;95123.13;;;24.18;39.28
26861;BME280;37676;46.956;7.430;2022-09-09T14:13:54;95127.88;;;24.32;39.70
26861;BME280;37676;46.956;7.430;2022-09-09T14:16:21;95150.09;;;24.43;39.29
26861;BME280;37676;46.956;7.430;2022-09-09T14:18:47;95124.25;;;24.49;39.26
26861;BME280;37676;46.956;7.430;2022-09-09T14:21:12;95133.13;;;24.63;39.14
26861;BME280;37676;46.956;7.430;2022-09-09T14:23:38;95127.03;;;24.66;38.67
26861;BME280;37676;46.956;7.430;2022-09-09T14:26:04;94943.09;;;23.45;38.59
26861;BME280;37676;46.956;7.430;2022-09-09T14:28:31;95125.53;;;24.65;38.67
26861;BME280;37676;46.956;7.430;2022-09-09T14:31:03;94956.78;;;23.56;37.97
26861;BME280;37676;46.956;7.430;2022-09-09T14:33:29;95020.28;;;23.95;37.88
26861;BME280;37676;46.956;7.430;2022-09-09T14:35:59;95131.66;;;24.62;37.66
26861;BME280;37676;46.956;7.430;2022-09-09T14:38:28;95135.84;;;24.61;37.23
26861;BME280;37676;46.956;7.430;2022-09-09T14:40:54;95122.28;;;24.51;37.04
26861;BME280;37676;46.956;7.430;2022-09-09T14:43:21;95129.06;;;24.56;37.43
26861;BME280;37676;46.956;7.430;2022-09-09T14:45:46;95085.31;;;24.25;37.78
26861;BME280;37676;46.956;7.430;2022-09-09T14:48:13;95093.75;;;24.32;37.59
26861;BME280;37676;46.956;7.430;2022-09-09T14:50:39;95131.31;;;24.58;37.93
26861;BME280;37676;46.956;7.430;2022-09-09T14:53:06;95079.63;;;24.25;38.14
26861;BME280;37676;46.956;7.430;2022-09-09T14:55:32;95121.75;;;24.63;38.30
26861;BME280;37676;46.956;7.430;2022-09-09T14:57:57;95102.06;;;24.47;38.49
26861;BME280;37676;46.956;7.430;2022-09-09T15:00:24;95109.75;;;24.54;38.25
26861;BME280;37676;46.956;7.430;2022-09-09T15:02:52;95132.28;;;24.70;38.58
26861;BME280;37676;46.956;7.430;2022-09-09T15:05:18;95134.56;;;24.71;38.23